createdAt,value
2023-09-08T00:00:26.474Z,10.20
2023-09-08T00:02:53.256Z,10.38
2023-09-08T00:05:19.897Z,9.85
2023-09-08T00:07:46.620Z,10.73
2023-09-08T00:10:13.355Z,9.43
2023-09-08T00:12:40.461Z,8.80
2023-09-08T00:15:08.156Z,11.18
2023-09-08T00:17:34.880Z,10.63
2023-09-08T00:20:01.669Z,8.25
2023-09-08T00:22:28.404Z,9.02
2023-09-08T00:24:56.044Z,10.13
2023-09-08T00:27:22.743Z,9.10
2023-09-08T00:29:49.444Z,10.10
2023-09-08T00:32:17.104Z,9.18
2023-09-08T00:34:44.571Z,8.18
2023-09-08T00:37:11.686Z,10.23
2023-09-08T00:39:40.242Z,9.68
2023-09-08T00:42:08.132Z,7.28
2023-09-08T00:44:35.294Z,10.73
2023-09-08T00:47:02.037Z,9.50
2023-09-08T00:49:29.759Z,8.30
2023-09-08T00:51:56.870Z,10.32
2023-09-08T00:54:23.558Z,11.07
2023-09-08T00:56:56.545Z,8.18
2023-09-08T00:59:23.627Z,7.80
2023-09-08T01:01:50.359Z,7.95
2023-09-08T01:04:17.330Z,8.20
2023-09-08T01:06:46.227Z,10.27
2023-09-08T01:09:14.453Z,8.43
2023-09-08T01:11:41.314Z,11.50
2023-09-08T01:14:08.836Z,8.38
2023-09-08T01:16:35.909Z,8.93
2023-09-08T01:19:05.932Z,8.30
2023-09-08T01:22:08.229Z,7.97
2023-09-08T01:24:56.670Z,8.48
2023-09-08T01:27:26.136Z,11.00
2023-09-08T01:29:55.076Z,12.02
2023-09-08T01:32:22.174Z,10.75
2023-09-08T01:34:48.916Z,8.73
2023-09-08T01:37:15.604Z,9.23
2023-09-08T01:39:42.246Z,10.40
2023-09-08T01:42:08.950Z,8.50
2023-09-08T01:44:37.281Z,11.07
2023-09-08T01:47:04.178Z,8.77
2023-09-08T01:49:30.842Z,11.07
2023-09-08T01:51:58.993Z,9.90
2023-09-08T01:54:25.732Z,8.35
2023-09-08T01:56:52.530Z,13.15
2023-09-08T01:59:19.226Z,8.85
2023-09-08T02:01:45.993Z,9.18
2023-09-08T02:04:12.757Z,11.55
2023-09-08T02:06:39.501Z,9.30
2023-09-08T02:09:06.144Z,12.57
2023-09-08T02:11:32.810Z,10.13
2023-09-08T02:13:59.936Z,9.25
2023-09-08T02:16:26.776Z,9.43
2023-09-08T02:18:53.537Z,10.75
2023-09-08T02:21:20.731Z,10.07
2023-09-08T02:23:47.387Z,9.93
2023-09-08T02:26:14.224Z,7.88
2023-09-08T02:28:41.043Z,13.48
2023-09-08T02:31:08.017Z,9.07
2023-09-08T02:33:34.756Z,9.15
2023-09-08T02:36:08.491Z,8.93
2023-09-08T02:38:38.693Z,9.32
2023-09-08T02:41:06.061Z,12.70
2023-09-08T02:43:32.799Z,9.27
2023-09-08T02:45:59.553Z,10.23
2023-09-08T02:48:26.698Z,9.85
2023-09-08T02:50:54.987Z,12.65
2023-09-08T02:53:21.936Z,12.07
2023-09-08T02:55:48.562Z,11.15
2023-09-08T02:58:15.298Z,14.65
2023-09-08T03:00:41.951Z,11.48
2023-09-08T03:03:09.133Z,13.23
2023-09-08T03:05:36.532Z,11.68
2023-09-08T03:08:03.502Z,12.50
2023-09-08T03:10:30.398Z,11.38
2023-09-08T03:12:57.915Z,12.95
2023-09-08T03:15:24.717Z,10.77
2023-09-08T03:17:51.480Z,14.50
2023-09-08T03:20:18.279Z,12.68
2023-09-08T03:22:45.002Z,10.88
2023-09-08T03:25:11.655Z,13.00
2023-09-08T03:27:38.406Z,11.50
2023-09-08T03:30:05.791Z,12.60
2023-09-08T03:32:33.047Z,11.85
2023-09-08T03:35:00.906Z,14.48
2023-09-08T03:37:28.025Z,12.23
2023-09-08T03:39:54.761Z,10.18
2023-09-08T03:42:21.731Z,11.50
2023-09-08T03:44:48.914Z,14.20
2023-09-08T03:47:15.791Z,23.23
2023-09-08T03:49:42.561Z,24.00
2023-09-08T03:52:09.273Z,22.27
2023-09-08T03:54:35.953Z,18.88
2023-09-08T03:57:02.651Z,18.65
2023-09-08T03:59:29.280Z,19.23
2023-09-08T04:01:55.980Z,16.75
2023-09-08T04:04:23.306Z,14.65
2023-09-08T04:06:50.024Z,19.73
2023-09-08T04:09:16.814Z,18.90
2023-09-08T04:11:43.545Z,13.88
2023-09-08T04:14:10.275Z,12.80
2023-09-08T04:16:37.099Z,14.02
2023-09-08T04:19:04.911Z,16.00
2023-09-08T04:21:31.968Z,17.08
2023-09-08T04:23:58.723Z,16.75
2023-09-08T04:26:26.064Z,11.68
2023-09-08T04:28:52.768Z,12.75
2023-09-08T04:31:20.649Z,13.18
2023-09-08T04:33:47.421Z,11.43
2023-09-08T04:36:14.616Z,12.43
2023-09-08T04:38:42.803Z,14.25
2023-09-08T04:41:10.675Z,9.75
2023-09-08T04:43:37.549Z,12.80
2023-09-08T04:46:04.889Z,10.80
2023-09-08T04:48:32.175Z,12.65
2023-09-08T04:50:59.269Z,13.43
2023-09-08T04:53:26.620Z,11.98
2023-09-08T04:55:53.421Z,12.43
2023-09-08T04:58:20.169Z,13.45
2023-09-08T05:00:47.575Z,14.18
2023-09-08T05:03:14.384Z,11.13
2023-09-08T05:05:41.268Z,12.07
2023-09-08T05:08:08.106Z,14.65
2023-09-08T05:10:35.635Z,12.27
2023-09-08T05:13:02.354Z,15.10
2023-09-08T05:15:29.289Z,16.75
2023-09-08T05:17:56.014Z,15.68
2023-09-08T05:20:23.525Z,13.77
2023-09-08T05:22:50.447Z,12.02
2023-09-08T05:25:17.928Z,13.75
2023-09-08T05:27:46.821Z,12.20
2023-09-08T05:30:14.076Z,14.18
2023-09-08T05:32:41.602Z,14.93
2023-09-08T05:35:09.277Z,13.77
2023-09-08T05:37:36.014Z,11.25
2023-09-08T05:40:04.842Z,10.73
2023-09-08T05:42:31.664Z,14.85
2023-09-08T05:44:58.420Z,13.52
2023-09-08T05:47:25.161Z,15.68
2023-09-08T05:49:52.614Z,14.40
2023-09-08T05:52:19.454Z,12.63
2023-09-08T05:54:47.250Z,13.23
2023-09-08T05:57:32.612Z,13.57
2023-09-08T05:59:59.565Z,11.32
2023-09-08T06:02:26.428Z,13.15
2023-09-08T06:04:53.129Z,12.82
2023-09-08T06:07:19.869Z,10.82
2023-09-08T06:09:46.629Z,13.10
2023-09-08T06:12:13.452Z,9.88
2023-09-08T06:14:42.065Z,14.05
2023-09-08T06:17:11.246Z,12.23
2023-09-08T06:19:38.068Z,11.45
2023-09-08T06:22:04.878Z,13.23
2023-09-08T06:24:31.844Z,12.82
2023-09-08T06:26:58.802Z,11.15
2023-09-08T06:29:25.569Z,10.68
2023-09-08T06:31:52.316Z,10.40
2023-09-08T06:34:22.780Z,11.60
2023-09-08T06:36:50.485Z,12.05
2023-09-08T06:39:17.305Z,11.63
2023-09-08T06:41:44.205Z,11.35
2023-09-08T06:44:14.755Z,12.13
2023-09-08T06:46:41.828Z,10.20
2023-09-08T06:49:09.054Z,10.77
2023-09-08T06:51:36.098Z,11.27
2023-09-08T06:54:04.100Z,12.05
2023-09-08T06:56:37.844Z,13.60
2023-09-08T06:59:05.595Z,12.60
2023-09-08T07:01:33.110Z,13.75
2023-09-08T07:04:00.567Z,13.60
2023-09-08T07:06:27.933Z,11.20
2023-09-08T07:08:56.747Z,13.13
2023-09-08T07:11:23.521Z,12.75
2023-09-08T07:13:50.927Z,13.02
2023-09-08T07:16:17.799Z,12.48
2023-09-08T07:18:44.924Z,14.95
2023-09-08T07:21:11.925Z,13.57
2023-09-08T07:23:39.402Z,13.05
2023-09-08T07:26:08.560Z,11.27
2023-09-08T07:28:35.921Z,13.32
2023-09-08T07:31:06.534Z,12.00
2023-09-08T07:33:38.130Z,14.18
2023-09-08T07:36:06.973Z,10.77
2023-09-08T07:38:34.627Z,11.02
2023-09-08T07:41:04.858Z,11.80
2023-09-08T07:43:32.450Z,11.13
2023-09-08T07:45:59.544Z,10.70
2023-09-08T07:48:26.598Z,11.25
2023-09-08T07:50:53.569Z,11.55
2023-09-08T07:53:20.330Z,9.68
2023-09-08T07:55:47.112Z,10.55
2023-09-08T07:58:13.811Z,7.97
2023-09-08T08:00:42.090Z,14.90
2023-09-08T08:03:09.726Z,14.85
2023-09-08T08:05:37.209Z,15.93
2023-09-08T08:08:04.100Z,16.08
2023-09-08T08:10:31.424Z,13.68
2023-09-08T08:12:58.303Z,11.68
2023-09-08T08:15:39.385Z,15.50
2023-09-08T08:18:07.385Z,12.45
2023-09-08T08:20:37.731Z,12.68
2023-09-08T08:23:06.273Z,8.88
2023-09-08T08:25:33.788Z,12.27
2023-09-08T08:28:02.080Z,10.70
2023-09-08T08:30:29.499Z,10.73
2023-09-08T08:32:56.531Z,9.93
2023-09-08T08:35:23.445Z,9.38
2023-09-08T08:38:08.600Z,10.25
2023-09-08T08:40:39.459Z,10.88
2023-09-08T08:43:06.489Z,9.05
2023-09-08T08:45:34.068Z,8.45
2023-09-08T08:51:03.722Z,7.30
2023-09-08T08:53:33.442Z,8.73
2023-09-08T08:56:02.478Z,8.93
2023-09-08T08:58:32.423Z,7.10
2023-09-08T09:01:01.076Z,11.52
2023-09-08T09:03:29.428Z,9.90
2023-09-08T09:05:56.264Z,10.30
2023-09-08T09:08:27.706Z,8.65
2023-09-08T09:11:14.466Z,8.35
2023-09-08T09:13:41.936Z,7.03
2023-09-08T09:16:14.703Z,7.85
2023-09-08T09:19:11.518Z,8.63
2023-09-08T09:21:52.264Z,7.90
2023-09-08T09:24:30.685Z,8.68
2023-09-08T09:26:58.264Z,7.75
2023-09-08T09:29:24.977Z,8.55
2023-09-08T09:32:07.773Z,9.57
2023-09-08T09:35:04.758Z,9.50
2023-09-08T09:37:32.260Z,8.80
2023-09-08T09:40:01.089Z,10.65
2023-09-08T09:42:29.392Z,9.27
2023-09-08T09:44:56.297Z,9.63
2023-09-08T09:47:23.695Z,9.02
2023-09-08T09:49:50.707Z,12.00
2023-09-08T09:52:27.210Z,8.23
2023-09-08T09:54:58.049Z,9.32
2023-09-08T09:57:26.014Z,8.00
2023-09-08T09:59:54.817Z,8.27
2023-09-08T10:02:22.773Z,7.05
2023-09-08T10:04:51.358Z,10.23
2023-09-08T10:07:19.075Z,6.45
2023-09-08T10:09:46.264Z,8.13
2023-09-08T10:12:16.998Z,7.95
2023-09-08T10:14:44.760Z,9.75
2023-09-08T10:17:17.517Z,8.57
2023-09-08T10:19:51.429Z,7.95
2023-09-08T10:22:23.694Z,6.53
2023-09-08T10:24:54.900Z,7.20
2023-09-08T10:27:23.382Z,7.88
2023-09-08T10:29:51.192Z,8.00
2023-09-08T10:32:19.637Z,8.85
2023-09-08T10:34:47.251Z,8.45
2023-09-08T10:37:28.914Z,10.70
2023-09-08T10:39:55.912Z,8.80
2023-09-08T10:42:30.527Z,7.22
2023-09-08T10:45:00.191Z,7.57
2023-09-08T10:47:31.887Z,9.70
2023-09-08T10:50:01.537Z,7.82
2023-09-08T10:52:28.697Z,7.33
2023-09-08T10:54:56.966Z,9.10
2023-09-08T10:57:26.412Z,11.40
2023-09-08T10:59:53.638Z,8.75
2023-09-08T11:02:40.173Z,7.80
2023-09-08T11:05:15.013Z,8.25
2023-09-08T11:07:44.524Z,8.77
2023-09-08T11:10:12.627Z,7.90
2023-09-08T11:12:39.736Z,7.75
2023-09-08T11:15:09.720Z,8.00
2023-09-08T11:17:43.666Z,8.20
2023-09-08T11:20:11.955Z,6.65
2023-09-08T11:22:40.598Z,6.78
2023-09-08T11:25:09.065Z,5.55
2023-09-08T11:27:36.118Z,9.52
2023-09-08T11:30:03.132Z,7.00
2023-09-08T11:32:34.325Z,8.30
2023-09-08T11:35:10.291Z,8.23
2023-09-08T11:37:43.719Z,6.25
2023-09-08T11:40:13.652Z,7.10
2023-09-08T11:42:45.251Z,9.77
2023-09-08T11:45:19.378Z,6.60
2023-09-08T11:47:46.378Z,8.20
2023-09-08T11:50:16.902Z,7.93
2023-09-08T11:55:18.460Z,6.28
2023-09-08T11:57:47.905Z,9.57
2023-09-08T12:00:18.443Z,9.30
2023-09-08T12:02:46.510Z,7.03
2023-09-08T12:05:26.369Z,7.50
2023-09-08T12:07:54.970Z,8.93
2023-09-08T12:10:23.021Z,7.30
2023-09-08T12:12:54.710Z,7.97
2023-09-08T12:15:51.204Z,7.10
2023-09-08T12:18:18.311Z,8.85
2023-09-08T12:20:45.873Z,8.48
2023-09-08T12:23:22.736Z,8.85
2023-09-08T12:25:51.803Z,7.40
2023-09-08T12:28:20.512Z,6.78
2023-09-08T12:30:47.952Z,7.57
2023-09-08T12:33:16.354Z,8.00
2023-09-08T12:35:49.438Z,7.13
2023-09-08T12:38:16.201Z,8.68
2023-09-08T12:40:42.903Z,10.70
2023-09-08T12:43:21.256Z,8.18
2023-09-08T12:45:54.542Z,7.53
2023-09-08T12:48:21.333Z,8.25
2023-09-08T12:50:49.422Z,8.27
2023-09-08T12:53:18.176Z,7.55
2023-09-08T12:55:45.083Z,8.13
2023-09-08T12:58:11.708Z,10.68
2023-09-08T13:00:38.474Z,8.50
2023-09-08T13:03:05.697Z,7.35
2023-09-08T13:05:35.379Z,7.38
2023-09-08T13:08:02.152Z,8.20
2023-09-08T13:10:28.992Z,8.52
2023-09-08T13:12:56.001Z,7.43
2023-09-08T13:15:24.994Z,7.90
2023-09-08T13:17:52.435Z,8.35
2023-09-08T13:20:19.550Z,8.85
2023-09-08T13:22:46.406Z,8.98
2023-09-08T13:25:13.234Z,10.80
2023-09-08T13:27:45.885Z,9.38
2023-09-08T13:30:14.955Z,7.88
2023-09-08T13:32:42.039Z,7.10
2023-09-08T13:35:09.277Z,9.40
2023-09-08T13:37:36.005Z,7.60
2023-09-08T13:40:05.661Z,9.38
2023-09-08T13:42:33.591Z,7.28
2023-09-08T13:45:00.710Z,10.00
2023-09-08T13:47:28.818Z,8.50
2023-09-08T13:49:58.380Z,9.95
2023-09-08T13:52:27.568Z,7.93
2023-09-08T13:55:19.255Z,8.48
2023-09-08T13:57:43.671Z,8.95
2023-09-08T14:00:16.377Z,6.40
2023-09-08T14:02:49.463Z,11.65
2023-09-08T14:05:19.483Z,7.53
2023-09-08T14:07:55.972Z,7.38
2023-09-08T14:12:54.429Z,7.03
2023-09-08T14:15:23.959Z,8.13
2023-09-08T14:17:51.496Z,8.88
2023-09-08T14:20:18.160Z,8.77
2023-09-08T14:22:45.002Z,9.68
2023-09-08T14:25:11.728Z,8.25
2023-09-08T14:27:38.952Z,7.88
2023-09-08T14:30:06.943Z,9.88
2023-09-08T14:32:33.867Z,11.18
2023-09-08T14:35:00.547Z,7.88
2023-09-08T14:37:48.680Z,9.88
2023-09-08T14:40:16.450Z,6.72
2023-09-08T14:42:43.162Z,7.53
2023-09-08T14:45:10.371Z,9.00
2023-09-08T14:47:37.241Z,9.65
2023-09-08T14:50:04.537Z,8.88
2023-09-08T14:52:31.319Z,8.70
2023-09-08T14:54:58.258Z,7.10
2023-09-08T14:57:24.981Z,7.85
2023-09-08T14:59:55.384Z,11.38
2023-09-08T15:02:23.649Z,7.75
2023-09-08T15:04:50.539Z,7.97
2023-09-08T15:07:17.471Z,7.68
2023-09-08T15:09:44.141Z,9.35
2023-09-08T15:12:11.262Z,6.95
2023-09-08T15:14:37.946Z,9.95
2023-09-08T15:17:06.268Z,7.97
2023-09-08T15:19:33.428Z,8.40
2023-09-08T15:22:00.337Z,13.18
2023-09-08T15:24:27.066Z,7.10
2023-09-08T15:26:54.723Z,8.25
2023-09-08T15:29:21.541Z,9.60
2023-09-08T15:31:49.961Z,13.02
2023-09-08T15:34:16.905Z,9.25
2023-09-08T15:36:43.682Z,11.90
2023-09-08T15:39:10.442Z,15.25
2023-09-08T15:41:37.172Z,11.25
2023-09-08T15:44:04.170Z,9.05
2023-09-08T15:46:31.137Z,7.75
2023-09-08T15:48:57.965Z,6.18
2023-09-08T15:51:24.674Z,8.00
2023-09-08T15:53:51.490Z,8.50
2023-09-08T15:56:18.267Z,8.20
2023-09-08T15:58:45.073Z,5.85
2023-09-08T16:01:13.321Z,10.85
2023-09-08T16:03:40.862Z,7.97
2023-09-08T16:06:09.286Z,7.60
2023-09-08T16:08:37.828Z,9.73
2023-09-08T16:11:04.563Z,10.98
2023-09-08T16:13:32.481Z,7.38
2023-09-08T16:16:00.162Z,8.07
2023-09-08T16:18:27.276Z,8.93
2023-09-08T16:20:54.101Z,7.60
2023-09-08T16:23:21.474Z,11.60
2023-09-08T16:25:48.169Z,7.70
2023-09-08T16:28:14.871Z,10.52
2023-09-08T16:30:41.805Z,6.85
2023-09-08T16:33:08.691Z,7.55
2023-09-08T16:35:35.960Z,8.60
2023-09-08T16:38:03.551Z,11.65
2023-09-08T16:40:30.200Z,10.70
2023-09-08T16:43:17.384Z,7.53
2023-09-08T16:45:45.449Z,10.00
2023-09-08T16:48:14.739Z,11.57
2023-09-08T16:50:41.497Z,6.55
2023-09-08T16:53:09.266Z,9.27
2023-09-08T16:55:36.099Z,10.55
2023-09-08T16:58:02.941Z,11.40
2023-09-08T17:00:29.786Z,10.75
2023-09-08T17:02:56.631Z,10.32
2023-09-08T17:05:23.569Z,9.45
2023-09-08T17:07:52.212Z,8.57
2023-09-08T17:10:19.226Z,20.10
2023-09-08T17:12:46.201Z,11.43
2023-09-08T17:15:13.026Z,9.35
2023-09-08T17:17:40.348Z,9.70
2023-09-08T17:20:09.092Z,13.73
2023-09-08T17:22:36.167Z,7.57
2023-09-08T17:25:04.263Z,10.65
2023-09-08T17:27:32.095Z,10.32
2023-09-08T17:30:00.390Z,10.50
2023-09-08T17:32:27.413Z,14.32
2023-09-08T17:34:55.555Z,17.95
2023-09-08T17:37:24.560Z,18.38
2023-09-08T17:39:51.340Z,16.20
2023-09-08T17:42:18.142Z,12.38
2023-09-08T17:44:45.526Z,11.23
2023-09-08T17:47:14.314Z,22.77
2023-09-08T17:49:41.170Z,18.88
2023-09-08T17:52:08.081Z,10.68
2023-09-08T17:54:35.116Z,16.60
2023-09-08T17:57:02.092Z,21.27
2023-09-08T17:59:28.808Z,18.83
2023-09-08T18:01:55.765Z,22.50
2023-09-08T18:04:44.196Z,15.52
2023-09-08T18:07:11.344Z,14.18
2023-09-08T18:09:38.343Z,13.88
2023-09-08T18:12:05.762Z,17.88
2023-09-08T18:14:32.571Z,22.23
2023-09-08T18:16:59.563Z,15.75
2023-09-08T18:19:26.357Z,16.85
2023-09-08T18:21:53.136Z,17.35
2023-09-08T18:24:19.838Z,17.27
2023-09-08T18:26:46.784Z,9.32
2023-09-08T18:29:13.534Z,16.38
2023-09-08T18:31:42.159Z,16.65
2023-09-08T18:34:09.959Z,30.63
2023-09-08T18:36:38.344Z,14.20
2023-09-08T18:39:10.813Z,16.55
2023-09-08T18:41:39.239Z,11.15
2023-09-08T18:44:06.106Z,18.23
2023-09-08T18:46:33.671Z,21.30
2023-09-08T18:49:00.410Z,16.52
2023-09-08T18:51:27.235Z,26.25
2023-09-08T18:53:58.204Z,30.63
2023-09-08T18:58:51.782Z,14.23
2023-09-08T19:01:19.038Z,17.75
2023-09-08T19:03:45.942Z,18.02
2023-09-08T19:06:12.947Z,22.00
2023-09-08T19:08:39.889Z,17.33
2023-09-08T19:11:06.856Z,16.75
2023-09-08T19:13:33.717Z,17.70
2023-09-08T19:16:00.649Z,30.02
2023-09-08T19:18:27.540Z,16.45
2023-09-08T19:20:57.266Z,16.48
2023-09-08T19:23:24.481Z,16.90
2023-09-08T19:25:52.661Z,13.60
2023-09-08T19:28:19.526Z,22.73
2023-09-08T19:30:49.111Z,20.77
2023-09-08T19:33:17.700Z,28.27
2023-09-08T19:35:45.953Z,33.53
2023-09-08T19:38:12.914Z,45.78
2023-09-08T19:40:40.108Z,41.03
2023-09-08T19:43:07.410Z,37.25
2023-09-08T19:45:37.455Z,29.65
2023-09-08T19:48:06.755Z,38.73
2023-09-08T19:50:34.156Z,16.63
2023-09-08T19:53:01.000Z,12.05
2023-09-08T19:55:28.274Z,23.20
2023-09-08T19:57:55.173Z,19.02
2023-09-08T20:00:22.397Z,32.17
2023-09-08T20:02:49.254Z,24.75
2023-09-08T20:05:16.512Z,18.75
2023-09-08T20:07:44.939Z,16.67
2023-09-08T20:10:12.756Z,15.23
2023-09-08T20:12:42.429Z,13.50
2023-09-08T20:15:10.065Z,12.63
2023-09-08T20:17:37.007Z,15.60
2023-09-08T20:20:04.190Z,13.30
2023-09-08T20:22:31.289Z,10.73
2023-09-08T20:24:58.183Z,11.20
2023-09-08T20:27:26.448Z,11.57
2023-09-08T20:29:57.069Z,13.40
2023-09-08T20:32:25.106Z,15.10
2023-09-08T20:34:52.082Z,22.30
2023-09-08T20:37:19.992Z,24.65
2023-09-08T20:39:46.895Z,23.65
2023-09-08T20:42:13.892Z,45.13
2023-09-08T20:44:41.230Z,33.72
2023-09-08T20:47:08.658Z,32.88
2023-09-08T20:49:35.557Z,28.58
2023-09-08T20:52:02.442Z,26.75
2023-09-08T20:54:29.855Z,21.25
2023-09-08T20:56:57.295Z,22.55
2023-09-08T20:59:42.722Z,20.33
2023-09-08T21:02:10.116Z,15.13
2023-09-08T21:04:36.912Z,19.98
2023-09-08T21:07:05.354Z,23.17
2023-09-08T21:09:32.098Z,18.48
2023-09-08T21:11:59.006Z,20.77
2023-09-08T21:14:25.743Z,16.52
2023-09-08T21:16:52.572Z,16.42
2023-09-08T21:19:20.739Z,20.92
2023-09-08T21:21:47.914Z,25.13
2023-09-08T21:24:14.751Z,12.20
2023-09-08T21:26:41.719Z,17.75
2023-09-08T21:29:10.079Z,19.15
2023-09-08T21:31:37.432Z,14.73
2023-09-08T21:34:04.837Z,32.95
2023-09-08T21:36:32.140Z,32.67
2023-09-08T21:39:01.260Z,27.65
2023-09-08T21:41:29.798Z,21.70
2023-09-08T21:43:56.976Z,26.20
2023-09-08T21:46:23.848Z,34.03
2023-09-08T21:48:50.644Z,27.52
2023-09-08T21:51:17.582Z,27.45
2023-09-08T21:53:44.500Z,26.35
2023-09-08T21:56:11.415Z,35.35
2023-09-08T21:58:39.909Z,18.55
2023-09-08T22:01:08.312Z,23.40
2023-09-08T22:03:35.633Z,25.95
2023-09-08T22:06:03.536Z,22.73
2023-09-08T22:08:30.525Z,38.55
2023-09-08T22:11:06.199Z,33.47
2023-09-08T22:13:52.166Z,30.30
2023-09-08T22:16:19.173Z,30.48
2023-09-08T22:18:46.128Z,24.63
2023-09-08T22:21:32.705Z,20.90
2023-09-08T22:23:59.708Z,18.70
2023-09-08T22:26:26.597Z,21.70
2023-09-08T22:28:53.525Z,19.13
2023-09-08T22:31:20.367Z,15.50
2023-09-08T22:33:48.641Z,19.50
2023-09-08T22:36:15.803Z,15.73
2023-09-08T22:38:42.763Z,20.85
2023-09-08T22:41:09.645Z,12.00
2023-09-08T22:43:36.755Z,14.05
2023-09-08T22:46:04.263Z,19.80
2023-09-08T22:48:32.449Z,16.88
2023-09-08T22:51:00.309Z,18.08
2023-09-08T22:53:28.571Z,15.55
2023-09-08T22:55:55.387Z,16.30
2023-09-08T22:58:22.397Z,15.25
2023-09-08T23:00:49.199Z,17.98
2023-09-08T23:03:16.053Z,14.65
2023-09-08T23:05:43.588Z,10.50
2023-09-08T23:08:10.838Z,11.27
2023-09-08T23:10:37.563Z,13.35
2023-09-08T23:13:04.433Z,15.57
2023-09-08T23:15:31.202Z,20.10
2023-09-08T23:17:58.335Z,10.90
2023-09-08T23:20:25.268Z,12.75
2023-09-08T23:22:52.013Z,16.95
2023-09-08T23:25:18.763Z,11.25
2023-09-08T23:27:45.702Z,18.13
2023-09-08T23:30:13.114Z,12.90
2023-09-08T23:32:41.024Z,13.38
2023-09-08T23:35:09.564Z,14.45
2023-09-08T23:37:36.473Z,20.25
2023-09-08T23:40:05.987Z,16.55
2023-09-08T23:42:32.779Z,14.70
2023-09-08T23:44:59.566Z,13.50
2023-09-08T23:47:26.466Z,12.43
2023-09-08T23:49:53.203Z,13.88
2023-09-08T23:52:20.108Z,12.15
2023-09-08T23:54:46.799Z,10.75
2023-09-08T23:57:32.264Z,14.02
2023-09-08T23:59:59.162Z,12.32
